createdAt,value
2018-11-01T00:00:02.639Z,86.20
2018-11-01T00:02:31.073Z,86.92
2018-11-01T00:04:59.497Z,86.95
2018-11-01T00:07:27.972Z,86.86
2018-11-01T00:09:56.383Z,86.87
2018-11-01T00:12:24.811Z,87.07
2018-11-01T00:14:53.212Z,86.97
2018-11-01T00:17:21.642Z,87.43
2018-11-01T00:19:50.028Z,87.52
2018-11-01T00:22:18.478Z,87.51
2018-11-01T00:24:46.904Z,87.71
2018-11-01T00:27:15.343Z,88.18
2018-11-01T00:29:43.765Z,88.99
2018-11-01T00:32:12.199Z,89.32
2018-11-01T00:34:40.605Z,89.80
2018-11-01T00:37:09.024Z,90.18
2018-11-01T00:39:37.437Z,90.42
2018-11-01T00:42:06.297Z,90.61
2018-11-01T00:44:34.903Z,90.90
2018-11-01T00:47:03.331Z,91.46
2018-11-01T00:49:31.731Z,92.45
2018-11-01T00:52:00.173Z,92.92
2018-11-01T00:54:28.594Z,93.66
2018-11-01T00:56:57.035Z,94.46
2018-11-01T00:59:25.454Z,94.92
2018-11-01T01:01:53.900Z,95.40
2018-11-01T01:04:22.312Z,95.52
2018-11-01T01:06:50.727Z,95.46
2018-11-01T01:09:19.182Z,95.90
2018-11-01T01:11:47.591Z,96.15
2018-11-01T01:14:16.042Z,96.42
2018-11-01T01:16:44.462Z,96.42
2018-11-01T01:19:12.895Z,96.57
2018-11-01T01:21:41.316Z,96.77
2018-11-01T01:24:09.795Z,96.97
2018-11-01T01:26:38.228Z,97.38
2018-11-01T01:29:06.802Z,97.73
2018-11-01T01:31:35.257Z,98.25
2018-11-01T01:34:03.701Z,98.15
2018-11-01T01:36:32.141Z,98.44
2018-11-01T01:39:00.584Z,98.75
2018-11-01T01:41:28.999Z,98.72
2018-11-01T01:43:57.468Z,98.88
2018-11-01T01:46:25.891Z,98.60
2018-11-01T01:48:54.317Z,98.57
2018-11-01T01:51:22.719Z,99.29
2018-11-01T01:53:51.156Z,99.51
2018-11-01T01:56:19.568Z,100.00
2018-11-01T01:58:48.022Z,100.00
2018-11-01T02:01:17.533Z,100.00
2018-11-01T02:03:45.972Z,100.00
2018-11-01T02:06:14.389Z,100.00
2018-11-01T02:08:43.044Z,100.00
2018-11-01T02:11:11.463Z,100.00
2018-11-01T02:13:39.898Z,100.00
2018-11-01T02:16:08.339Z,100.00
2018-11-01T02:18:36.774Z,100.00
2018-11-01T02:21:05.751Z,100.00
2018-11-01T02:23:34.197Z,100.00
2018-11-01T02:26:02.643Z,100.00
2018-11-01T02:28:31.104Z,100.00
2018-11-01T02:30:59.528Z,100.00
2018-11-01T02:33:27.959Z,100.00
2018-11-01T02:35:56.389Z,100.00
2018-11-01T02:38:24.863Z,100.00
2018-11-01T02:40:53.302Z,100.00
2018-11-01T02:43:21.783Z,100.00
2018-11-01T02:45:50.197Z,100.00
2018-11-01T02:48:18.630Z,100.00
2018-11-01T02:50:47.038Z,100.00
2018-11-01T02:53:15.497Z,100.00
2018-11-01T02:55:43.923Z,100.00
2018-11-01T02:58:12.363Z,100.00
2018-11-01T03:00:40.778Z,100.00
2018-11-01T03:03:09.212Z,100.00
2018-11-01T03:05:37.624Z,100.00
2018-11-01T03:08:06.315Z,100.00
2018-11-01T03:10:34.753Z,100.00
2018-11-01T03:13:03.191Z,100.00
2018-11-01T03:15:31.613Z,100.00
2018-11-01T03:18:00.044Z,100.00
2018-11-01T03:20:28.478Z,100.00
2018-11-01T03:22:57.761Z,100.00
2018-11-01T03:25:26.163Z,100.00
2018-11-01T03:27:54.609Z,100.00
2018-11-01T03:30:23.037Z,100.00
2018-11-01T03:32:51.486Z,100.00
2018-11-01T03:35:19.913Z,100.00
2018-11-01T03:37:48.373Z,100.00
2018-11-01T03:40:16.775Z,100.00
2018-11-01T03:42:45.252Z,100.00
2018-11-01T03:45:14.044Z,100.00
2018-11-01T03:47:42.994Z,100.00
2018-11-01T03:50:12.181Z,100.00
2018-11-01T03:52:40.623Z,100.00
2018-11-01T03:55:10.507Z,100.00
2018-11-01T03:57:38.939Z,100.00
2018-11-01T04:00:10.231Z,100.00
2018-11-01T04:02:38.701Z,100.00
2018-11-01T04:05:07.147Z,100.00
2018-11-01T04:07:35.574Z,100.00
2018-11-01T04:10:04.723Z,100.00
2018-11-01T04:12:33.144Z,100.00
2018-11-01T04:15:01.633Z,100.00
2018-11-01T04:17:30.021Z,100.00
2018-11-01T04:19:58.498Z,100.00
2018-11-01T04:22:26.930Z,100.00
2018-11-01T04:24:55.358Z,100.00
2018-11-01T04:27:23.757Z,100.00
2018-11-01T04:29:52.198Z,100.00
2018-11-01T04:32:20.624Z,100.00
2018-11-01T04:34:49.084Z,100.00
2018-11-01T04:37:17.511Z,100.00
2018-11-01T04:39:45.960Z,100.00
2018-11-01T04:42:14.391Z,100.00
2018-11-01T04:44:42.832Z,100.00
2018-11-01T04:47:11.341Z,100.00
2018-11-01T04:49:39.741Z,100.00
2018-11-01T04:52:08.211Z,100.00
2018-11-01T04:54:36.655Z,100.00
2018-11-01T04:57:05.040Z,100.00
2018-11-01T04:59:33.474Z,100.00
2018-11-01T05:02:01.914Z,100.00
2018-11-01T05:04:30.354Z,100.00
2018-11-01T05:06:58.854Z,100.00
2018-11-01T05:09:27.276Z,100.00
2018-11-01T05:11:55.704Z,100.00
2018-11-01T05:14:24.138Z,100.00
2018-11-01T05:16:52.557Z,100.00
2018-11-01T05:19:21.012Z,100.00
2018-11-01T05:21:49.432Z,100.00
2018-11-01T05:24:17.881Z,100.00
2018-11-01T05:26:46.333Z,100.00
2018-11-01T05:29:14.794Z,100.00
2018-11-01T05:31:43.229Z,100.00
2018-11-01T05:34:11.671Z,100.00
2018-11-01T05:36:40.096Z,100.00
2018-11-01T05:39:10.228Z,100.00
2018-11-01T05:41:38.663Z,100.00
2018-11-01T05:44:07.191Z,100.00
2018-11-01T05:46:35.606Z,100.00
2018-11-01T05:49:04.054Z,100.00
2018-11-01T05:51:32.497Z,100.00
2018-11-01T05:54:00.909Z,100.00
2018-11-01T05:56:29.367Z,100.00
2018-11-01T05:58:57.773Z,100.00
2018-11-01T06:01:32.472Z,100.00
2018-11-01T06:04:01.035Z,100.00
2018-11-01T06:06:29.478Z,100.00
2018-11-01T06:08:57.931Z,100.00
2018-11-01T06:11:26.373Z,100.00
2018-11-01T06:13:54.820Z,100.00
2018-11-01T06:16:23.261Z,100.00
2018-11-01T06:18:51.718Z,100.00
2018-11-01T06:21:20.189Z,100.00
2018-11-01T06:23:48.606Z,100.00
2018-11-01T06:26:17.669Z,100.00
2018-11-01T06:28:46.107Z,100.00
2018-11-01T06:31:14.573Z,100.00
2018-11-01T06:33:43.009Z,100.00
2018-11-01T06:36:14.651Z,100.00
2018-11-01T06:38:43.091Z,100.00
2018-11-01T06:41:11.538Z,100.00
2018-11-01T06:43:40.013Z,100.00
2018-11-01T06:46:08.480Z,100.00
2018-11-01T06:48:36.938Z,100.00
2018-11-01T06:51:05.847Z,100.00
2018-11-01T06:53:34.266Z,100.00
2018-11-01T06:56:02.681Z,100.00
2018-11-01T06:58:31.247Z,100.00
2018-11-01T07:00:59.568Z,100.00
2018-11-01T07:03:28.025Z,100.00
2018-11-01T07:05:56.464Z,100.00
2018-11-01T07:08:24.933Z,100.00
2018-11-01T07:10:53.395Z,100.00
2018-11-01T07:13:21.831Z,100.00
2018-11-01T07:15:50.262Z,100.00
2018-11-01T07:18:18.703Z,100.00
2018-11-01T07:20:47.130Z,100.00
2018-11-01T07:23:15.588Z,100.00
2018-11-01T07:25:44.036Z,100.00
2018-11-01T07:28:12.486Z,100.00
2018-11-01T07:30:40.905Z,100.00
2018-11-01T07:33:09.352Z,100.00
2018-11-01T07:35:37.770Z,100.00
2018-11-01T07:38:06.477Z,100.00
2018-11-01T07:40:34.906Z,100.00
2018-11-01T07:43:03.407Z,100.00
2018-11-01T07:45:31.841Z,99.93
2018-11-01T07:48:00.294Z,99.29
2018-11-01T07:50:28.728Z,98.46
2018-11-01T07:52:57.284Z,97.22
2018-11-01T07:55:25.644Z,97.18
2018-11-01T07:57:54.101Z,96.94
2018-11-01T08:00:22.508Z,97.08
2018-11-01T08:02:50.947Z,97.03
2018-11-01T08:05:19.352Z,96.62
2018-11-01T08:07:47.813Z,96.86
2018-11-01T08:10:18.369Z,96.83
2018-11-01T08:12:47.621Z,96.50
2018-11-01T08:15:17.614Z,95.87
2018-11-01T08:17:46.050Z,96.27
2018-11-01T08:20:15.402Z,95.57
2018-11-01T08:22:43.648Z,94.85
2018-11-01T08:25:12.764Z,93.54
2018-11-01T08:27:41.860Z,93.95
2018-11-01T08:30:13.470Z,93.56
2018-11-01T08:32:41.895Z,92.78
2018-11-01T08:35:11.392Z,93.41
2018-11-01T08:37:40.563Z,93.78
2018-11-01T08:40:09.709Z,93.74
2018-11-01T08:42:38.389Z,93.99
2018-11-01T08:45:08.953Z,94.18
2018-11-01T08:47:37.676Z,93.47
2018-11-01T08:50:07.285Z,92.84
2018-11-01T08:52:35.661Z,93.65
2018-11-01T08:55:04.105Z,93.83
2018-11-01T08:57:32.511Z,93.95
2018-11-01T09:00:00.959Z,94.43
2018-11-01T09:02:29.390Z,95.36
2018-11-01T09:04:57.821Z,94.75
2018-11-01T09:07:26.255Z,95.42
2018-11-01T09:09:54.740Z,95.64
2018-11-01T09:12:23.149Z,95.14
2018-11-01T09:14:51.594Z,95.83
2018-11-01T09:17:20.005Z,94.79
2018-11-01T09:19:48.468Z,93.65
2018-11-01T09:22:16.903Z,92.71
2018-11-01T09:24:45.596Z,91.90
2018-11-01T09:27:14.026Z,92.58
2018-11-01T09:29:42.467Z,91.57
2018-11-01T09:32:10.885Z,91.02
2018-11-01T09:34:39.322Z,90.69
2018-11-01T09:37:07.750Z,90.46
2018-11-01T09:39:36.225Z,90.46
2018-11-01T09:42:04.757Z,90.56
2018-11-01T09:44:33.195Z,89.94
2018-11-01T09:47:01.950Z,90.00
2018-11-01T09:49:30.131Z,90.47
2018-11-01T09:51:58.560Z,90.54
2018-11-01T09:54:27.176Z,89.82
2018-11-01T09:56:55.633Z,89.91
2018-11-01T09:59:24.060Z,89.13
2018-11-01T10:01:52.544Z,89.43
2018-11-01T10:04:20.964Z,89.89
2018-11-01T10:06:49.471Z,90.47
2018-11-01T10:09:17.864Z,89.95
2018-11-01T10:11:46.311Z,89.87
2018-11-01T10:14:14.721Z,89.08
2018-11-01T10:16:43.341Z,88.96
2018-11-01T10:19:11.877Z,88.58
2018-11-01T10:21:40.341Z,89.06
2018-11-01T10:24:09.189Z,88.78
2018-11-01T10:26:37.634Z,89.35
2018-11-01T10:29:06.080Z,88.59
2018-11-01T10:31:34.527Z,88.60
2018-11-01T10:34:03.069Z,88.71
2018-11-01T10:36:31.521Z,87.55
2018-11-01T10:38:59.941Z,87.61
2018-11-01T10:41:28.395Z,87.89
2018-11-01T10:43:56.857Z,88.42
2018-11-01T10:46:25.330Z,87.71
2018-11-01T10:48:53.766Z,88.12
2018-11-01T10:51:22.224Z,87.96
2018-11-01T10:53:50.711Z,88.07
2018-11-01T10:56:19.092Z,87.71
2018-11-01T10:58:47.545Z,89.06
2018-11-01T11:01:21.209Z,87.99
2018-11-01T11:03:49.659Z,85.42
2018-11-01T11:06:18.170Z,86.45
2018-11-01T11:08:46.586Z,86.66
2018-11-01T11:11:15.018Z,85.86
2018-11-01T11:13:43.468Z,86.00
2018-11-01T11:16:11.887Z,85.25
2018-11-01T11:18:40.363Z,85.92
2018-11-01T11:21:09.117Z,85.37
2018-11-01T11:23:37.293Z,86.46
2018-11-01T11:26:05.740Z,86.42
2018-11-01T11:28:34.223Z,85.73
2018-11-01T11:31:02.647Z,84.74
2018-11-01T11:33:31.106Z,84.89
2018-11-01T11:35:59.713Z,84.68
2018-11-01T11:38:28.003Z,83.81
2018-11-01T11:40:56.425Z,85.14
2018-11-01T11:43:24.919Z,85.36
2018-11-01T11:45:53.355Z,85.52
2018-11-01T11:48:21.805Z,84.71
2018-11-01T11:50:50.235Z,84.18
2018-11-01T11:53:18.688Z,84.11
2018-11-01T11:55:47.136Z,85.00
2018-11-01T11:58:15.613Z,84.07
2018-11-01T12:00:44.065Z,85.00
2018-11-01T12:03:12.491Z,85.26
2018-11-01T12:05:40.964Z,86.02
2018-11-01T12:08:09.456Z,85.05
2018-11-01T12:10:37.919Z,84.73
2018-11-01T12:13:06.534Z,84.12
2018-11-01T12:15:35.020Z,84.46
2018-11-01T12:18:03.459Z,84.18
2018-11-01T12:20:31.905Z,83.77
2018-11-01T12:23:00.353Z,85.16
2018-11-01T12:25:28.796Z,85.79
2018-11-01T12:27:57.231Z,85.69
2018-11-01T12:30:25.662Z,85.86
2018-11-01T12:32:54.088Z,85.70
2018-11-01T12:35:22.563Z,85.96
2018-11-01T12:37:51.023Z,86.31
2018-11-01T12:40:19.464Z,85.93
2018-11-01T12:42:47.898Z,86.07
2018-11-01T12:45:16.353Z,85.66
2018-11-01T12:47:44.795Z,85.34
2018-11-01T12:50:14.416Z,85.21
2018-11-01T12:52:42.866Z,85.51
2018-11-01T12:55:11.653Z,85.76
2018-11-01T12:57:40.084Z,85.80
2018-11-01T13:00:10.160Z,87.16
2018-11-01T13:02:38.728Z,88.48
2018-11-01T13:05:07.111Z,87.89
2018-11-01T13:07:35.549Z,88.78
2018-11-01T13:10:04.029Z,88.69
2018-11-01T13:12:32.509Z,88.41
2018-11-01T13:15:00.934Z,88.22
2018-11-01T13:17:29.381Z,89.84
2018-11-01T13:19:57.813Z,89.31
2018-11-01T13:22:26.272Z,90.46
2018-11-01T13:24:54.715Z,90.48
2018-11-01T13:27:23.164Z,89.08
2018-11-01T13:29:51.614Z,88.65
2018-11-01T13:32:20.057Z,88.21
2018-11-01T13:34:48.582Z,88.93
2018-11-01T13:37:16.970Z,88.84
2018-11-01T13:39:45.579Z,88.87
2018-11-01T13:42:13.933Z,89.45
2018-11-01T13:44:42.353Z,90.47
2018-11-01T13:47:12.887Z,90.81
2018-11-01T13:49:42.328Z,91.20
2018-11-01T13:52:12.238Z,91.09
2018-11-01T13:54:42.962Z,91.65
2018-11-01T13:57:11.512Z,91.94
2018-11-01T13:59:39.989Z,92.72
2018-11-01T14:02:08.405Z,93.05
2018-11-01T14:04:36.871Z,92.14
2018-11-01T14:07:05.496Z,92.73
2018-11-01T14:09:33.969Z,92.57
2018-11-01T14:12:02.387Z,92.28
2018-11-01T14:14:31.287Z,92.06
2018-11-01T14:16:59.292Z,91.60
2018-11-01T14:19:27.760Z,91.74
2018-11-01T14:21:56.185Z,92.42
2018-11-01T14:24:24.674Z,92.08
2018-11-01T14:26:53.072Z,91.87
2018-11-01T14:29:21.508Z,91.45
2018-11-01T14:31:49.930Z,91.37
2018-11-01T14:34:18.370Z,92.54
2018-11-01T14:36:46.788Z,93.07
2018-11-01T14:39:15.220Z,93.44
2018-11-01T14:41:43.640Z,93.54
2018-11-01T14:44:12.137Z,94.22
2018-11-01T14:46:40.572Z,94.50
2018-11-01T14:49:08.984Z,94.18
2018-11-01T14:51:37.428Z,94.46
2018-11-01T14:54:06.639Z,94.49
2018-11-01T14:56:36.063Z,94.76
2018-11-01T14:59:04.596Z,94.54
2018-11-01T15:01:31.285Z,94.47
2018-11-01T15:03:59.721Z,94.59
2018-11-01T15:06:28.221Z,95.11
2018-11-01T15:08:56.628Z,95.47
2018-11-01T15:11:25.074Z,95.62
2018-11-01T15:13:53.493Z,96.50
2018-11-01T15:16:21.947Z,96.43
2018-11-01T15:18:50.613Z,96.37
2018-11-01T15:21:19.113Z,96.54
2018-11-01T15:23:47.609Z,96.67
2018-11-01T15:26:16.252Z,96.69
2018-11-01T15:28:44.634Z,97.45
2018-11-01T15:31:13.076Z,97.61
2018-11-01T15:33:41.666Z,98.10
2018-11-01T15:36:10.003Z,98.58
2018-11-01T15:38:38.433Z,99.01
2018-11-01T15:41:10.963Z,99.39
2018-11-01T15:43:39.809Z,99.26
2018-11-01T15:46:08.952Z,99.55
2018-11-01T15:48:37.379Z,99.83
2018-11-01T15:51:06.749Z,100.00
2018-11-01T15:53:35.165Z,100.00
2018-11-01T15:56:03.629Z,100.00
2018-11-01T15:58:32.098Z,100.00
2018-11-01T16:01:00.536Z,100.00
2018-11-01T16:03:29.045Z,100.00
2018-11-01T16:05:57.434Z,100.00
2018-11-01T16:08:25.901Z,100.00
2018-11-01T16:10:54.364Z,100.00
2018-11-01T16:13:22.861Z,100.00
2018-11-01T16:15:51.284Z,100.00
2018-11-01T16:18:19.745Z,100.00
2018-11-01T16:20:48.162Z,100.00
2018-11-01T16:23:16.639Z,99.77
2018-11-01T16:25:45.093Z,99.48
2018-11-01T16:28:13.576Z,99.24
2018-11-01T16:30:41.991Z,99.13
2018-11-01T16:33:10.430Z,99.07
2018-11-01T16:35:38.847Z,98.75
2018-11-01T16:38:07.301Z,98.25
2018-11-01T16:40:35.734Z,98.42
2018-11-01T16:43:04.194Z,98.01
2018-11-01T16:45:32.631Z,98.31
2018-11-01T16:48:01.117Z,98.48
2018-11-01T16:50:29.549Z,98.70
2018-11-01T16:52:58.007Z,98.33
2018-11-01T16:55:26.428Z,98.68
2018-11-01T16:57:54.878Z,98.46
2018-11-01T17:00:23.321Z,98.50
2018-11-01T17:02:51.776Z,98.67
2018-11-01T17:05:20.213Z,98.75
2018-11-01T17:07:48.640Z,98.93
2018-11-01T17:10:19.602Z,98.51
2018-11-01T17:12:48.019Z,98.63
2018-11-01T17:15:16.538Z,98.39
2018-11-01T17:17:45.601Z,98.70
2018-11-01T17:20:14.135Z,98.78
2018-11-01T17:22:43.015Z,99.13
2018-11-01T17:25:11.524Z,99.26
2018-11-01T17:27:39.913Z,99.26
2018-11-01T17:30:09.319Z,99.34
2018-11-01T17:32:43.130Z,99.36
2018-11-01T17:35:11.608Z,99.32
2018-11-01T17:37:40.031Z,99.02
2018-11-01T17:40:08.972Z,99.09
2018-11-01T17:42:37.457Z,99.41
2018-11-01T17:45:06.953Z,99.57
2018-11-01T17:47:35.392Z,99.82
2018-11-01T17:50:04.210Z,99.77
2018-11-01T17:52:32.633Z,99.84
2018-11-01T17:55:01.126Z,100.00
2018-11-01T17:57:29.544Z,99.93
2018-11-01T17:59:57.982Z,100.00
2018-11-01T18:02:26.613Z,100.00
2018-11-01T18:04:54.981Z,100.00
2018-11-01T18:07:23.449Z,100.00
2018-11-01T18:09:51.876Z,100.00
2018-11-01T18:12:20.373Z,100.00
2018-11-01T18:14:48.785Z,100.00
2018-11-01T18:17:17.247Z,100.00
2018-11-01T18:19:45.681Z,100.00
2018-11-01T18:22:14.137Z,100.00
2018-11-01T18:24:42.593Z,100.00
2018-11-01T18:27:11.057Z,100.00
2018-11-01T18:29:39.482Z,100.00
2018-11-01T18:32:08.096Z,100.00
2018-11-01T18:34:36.437Z,100.00
2018-11-01T18:37:04.972Z,100.00
2018-11-01T18:39:33.551Z,100.00
2018-11-01T18:42:01.901Z,100.00
2018-11-01T18:44:30.349Z,100.00
2018-11-01T18:46:58.824Z,100.00
2018-11-01T18:49:27.243Z,100.00
2018-11-01T18:51:55.706Z,100.00
2018-11-01T18:54:24.189Z,100.00
2018-11-01T18:56:52.626Z,100.00
2018-11-01T18:59:21.066Z,100.00
2018-11-01T19:01:49.517Z,100.00
2018-11-01T19:04:17.961Z,100.00
2018-11-01T19:06:46.396Z,100.00
2018-11-01T19:09:14.864Z,100.00
2018-11-01T19:11:43.281Z,100.00
2018-11-01T19:14:11.761Z,100.00
2018-11-01T19:16:40.233Z,100.00
2018-11-01T19:19:08.684Z,100.00
2018-11-01T19:21:37.134Z,100.00
2018-11-01T19:24:05.659Z,100.00
2018-11-01T19:26:34.106Z,100.00
2018-11-01T19:29:02.550Z,100.00
2018-11-01T19:31:30.994Z,100.00
2018-11-01T19:33:59.505Z,100.00
2018-11-01T19:36:27.879Z,100.00
2018-11-01T19:38:56.344Z,100.00
2018-11-01T19:41:24.780Z,100.00
2018-11-01T19:43:53.273Z,100.00
2018-11-01T19:46:21.708Z,100.00
2018-11-01T19:48:50.151Z,100.00
2018-11-01T19:51:18.579Z,100.00
2018-11-01T19:53:47.044Z,100.00
2018-11-01T19:56:15.467Z,100.00
2018-11-01T19:58:43.953Z,100.00
2018-11-01T20:01:12.377Z,100.00
2018-11-01T20:03:41.623Z,100.00
2018-11-01T20:06:10.041Z,100.00
2018-11-01T20:08:38.513Z,100.00
2018-11-01T20:11:06.965Z,100.00
2018-11-01T20:13:35.451Z,100.00
2018-11-01T20:16:03.870Z,100.00
2018-11-01T20:18:32.403Z,100.00
2018-11-01T20:21:00.753Z,100.00
2018-11-01T20:23:29.199Z,100.00
2018-11-01T20:25:57.624Z,100.00
2018-11-01T20:28:26.048Z,100.00
2018-11-01T20:30:54.526Z,100.00
2018-11-01T20:33:23.019Z,100.00
2018-11-01T20:35:51.419Z,100.00
2018-11-01T20:38:19.868Z,100.00
2018-11-01T20:40:48.309Z,100.00
2018-11-01T20:43:16.759Z,100.00
2018-11-01T20:45:45.221Z,100.00
2018-11-01T20:48:13.664Z,100.00
2018-11-01T20:50:42.120Z,100.00
2018-11-01T20:53:10.560Z,100.00
2018-11-01T20:55:38.985Z,100.00
2018-11-01T20:58:07.411Z,100.00
2018-11-01T21:00:35.997Z,100.00
2018-11-01T21:03:04.439Z,100.00
2018-11-01T21:05:32.886Z,100.00
2018-11-01T21:08:01.401Z,100.00
2018-11-01T21:10:29.900Z,100.00
2018-11-01T21:12:58.320Z,100.00
2018-11-01T21:15:26.764Z,100.00
2018-11-01T21:17:55.214Z,100.00
2018-11-01T21:20:23.661Z,100.00
2018-11-01T21:22:52.090Z,100.00
2018-11-01T21:25:20.578Z,100.00
2018-11-01T21:27:49.013Z,100.00
2018-11-01T21:30:17.493Z,100.00
2018-11-01T21:32:46.032Z,100.00
2018-11-01T21:35:14.576Z,100.00
2018-11-01T21:37:42.931Z,100.00
2018-11-01T21:40:12.012Z,100.00
2018-11-01T21:42:40.527Z,100.00
2018-11-01T21:45:10.845Z,100.00
2018-11-01T21:47:39.357Z,100.00
2018-11-01T21:50:07.825Z,100.00
2018-11-01T21:52:36.265Z,100.00
2018-11-01T21:55:04.719Z,100.00
2018-11-01T21:57:33.269Z,100.00
2018-11-01T22:00:02.061Z,100.00
2018-11-01T22:02:30.508Z,100.00
2018-11-01T22:04:58.926Z,100.00
2018-11-01T22:07:27.417Z,100.00
2018-11-01T22:09:55.853Z,100.00
2018-11-01T22:12:24.296Z,100.00
2018-11-01T22:14:52.714Z,100.00
2018-11-01T22:17:21.192Z,100.00
2018-11-01T22:19:49.609Z,100.00
2018-11-01T22:22:18.052Z,100.00
2018-11-01T22:24:46.476Z,100.00
2018-11-01T22:27:14.958Z,100.00
2018-11-01T22:29:43.389Z,100.00
2018-11-01T22:32:11.833Z,100.00
2018-11-01T22:34:40.257Z,100.00
2018-11-01T22:37:08.735Z,100.00
2018-11-01T22:39:37.181Z,100.00
2018-11-01T22:42:06.277Z,100.00
2018-11-01T22:44:34.695Z,100.00
2018-11-01T22:47:03.141Z,100.00
2018-11-01T22:49:31.548Z,100.00
2018-11-01T22:51:59.980Z,100.00
2018-11-01T22:54:28.420Z,100.00
2018-11-01T22:56:56.886Z,100.00
2018-11-01T22:59:25.328Z,100.00
2018-11-01T23:01:53.777Z,100.00
2018-11-01T23:04:22.228Z,100.00
2018-11-01T23:06:50.647Z,100.00
2018-11-01T23:09:19.119Z,100.00
2018-11-01T23:11:47.564Z,100.00
2018-11-01T23:14:16.110Z,100.00
2018-11-01T23:16:44.536Z,100.00
2018-11-01T23:19:13.302Z,100.00
2018-11-01T23:21:41.721Z,100.00
2018-11-01T23:24:10.166Z,100.00
2018-11-01T23:26:38.635Z,100.00
2018-11-01T23:29:07.078Z,100.00
2018-11-01T23:31:35.504Z,100.00
2018-11-01T23:34:04.191Z,100.00
2018-11-01T23:36:38.012Z,100.00
2018-11-01T23:39:14.084Z,100.00
2018-11-01T23:41:48.254Z,100.00
2018-11-01T23:44:22.276Z,100.00
2018-11-01T23:46:56.125Z,100.00
2018-11-01T23:49:40.619Z,100.00
2018-11-01T23:52:13.467Z,100.00
2018-11-01T23:54:41.929Z,100.00
2018-11-01T23:57:10.336Z,100.00
2018-11-01T23:59:38.800Z,100.00
